Lone, Kentucky
Current Conditions -  °F | °C
As of 2:53 AM on Tuesday 27 Jan 2015 (Local Time) from KJKL Reporting Station
Overcast Overcast  
Wind Chill: -3°   Ceiling: 2500
Heat Index: -3°   Visibility: 10mi
Dew Point: -6°   Wind: 0mph
Humidity: 84%   Direction: NA
Pressure: 29.87"   Gusts: NA
Location:  37.53°N, 83.6°W
Report Text: KJKL 270753Z AUTO 00000KT 10SM OVC025 M03/M06 A2987 RMK AO2 SLP127 T10331056
Loading
Personal Weather Stations






























Interactive Weather Map New forecast layout! Learn more

10-Day Weather Forecast

Advertisements
Track Severe Weather on mobile